Time;durP1;ratioP1;P1;durP2;ratioP2;P2;SDS_P1;SDS_P2;PMS_P1;PMS_P2;Temp;Humidity;BMP_temperature;BMP_pressure;BME280_temperature;BME280_humidity;BME280_pressure;Samples;Min_cycle;Max_cycle;Signal;HPM_P1;HPM_P2
2022/07/24 06:02:52;;;;;;;6.90;5.60;;;;;;;29.36;47.99;100898.50;5042859;28;20421;-74
2022/07/24 06:05:20;;;;;;;7.03;5.20;;;;;;;29.50;47.40;100905.38;5011814;28;20053;-74
2022/07/24 06:07:48;;;;;;;7.07;4.82;;;;;;;29.35;46.75;100896.06;5029159;28;20790;-74
2022/07/24 06:10:17;;;;;;;6.78;5.47;;;;;;;29.42;47.02;100900.91;5030617;28;20400;-74
2022/07/24 06:16:23;;;;;;;11.15;4.68;;;;;;;29.74;45.81;100903.72;5109222;27;20412;-74
2022/07/24 06:18:51;;;;;;;5.47;4.63;;;;;;;29.90;44.90;100894.00;5108553;28;20070;-74
2022/07/24 06:21:19;;;;;;;6.03;4.25;;;;;;;30.07;43.72;100902.84;5109434;28;20044;-74
2022/07/24 06:23:47;;;;;;;8.88;4.70;;;;;;;30.12;44.04;100900.44;5105374;28;20482;-74
2022/07/24 06:26:15;;;;;;;7.03;4.38;;;;;;;30.24;43.33;100902.00;5107942;28;20055;-74
2022/07/24 06:28:43;;;;;;;6.70;4.50;;;;;;;30.37;42.67;100899.53;5102512;28;20036;-75
2022/07/24 06:31:11;;;;;;;5.68;3.70;;;;;;;30.31;42.19;100901.97;5107918;28;20035;-74
2022/07/24 06:33:44;;;;;;;;;;;;;;;30.29;41.33;100903.59;5108581;28;20482;-75
2022/07/24 06:36:12;;;;;;;4.93;3.70;;;;;;;30.31;41.03;100907.63;5102874;28;19924;-74
2022/07/24 06:38:40;;;;;;;7.05;4.30;;;;;;;30.45;41.16;100911.59;5107709;28;20051;-74
2022/07/24 06:41:08;;;;;;;5.85;3.95;;;;;;;30.58;40.54;100906.28;5107953;28;20513;-76
2022/07/24 06:43:36;;;;;;;3.97;3.58;;;;;;;30.48;40.92;100901.50;5108269;28;20067;-74
2022/07/24 06:46:04;;;;;;;4.55;4.15;;;;;;;30.58;40.71;100903.47;5107998;28;20043;-74
2022/07/24 06:48:32;;;;;;;4.35;3.85;;;;;;;30.80;40.32;100901.34;5108217;28;20032;-74
2022/07/24 06:51:00;;;;;;;5.05;3.92;;;;;;;30.88;40.03;100901.31;5104255;28;20521;-75
2022/07/24 06:53:28;;;;;;;4.78;3.92;;;;;;;30.97;40.41;100898.81;5104143;28;20039;-75
2022/07/24 06:55:56;;;;;;;5.65;3.88;;;;;;;30.93;40.72;100907.31;5107815;28;20044;-75
2022/07/24 06:58:24;;;;;;;5.10;4.18;;;;;;;31.17;40.34;100906.75;5107925;28;20047;-75
2022/07/24 07:00:52;;;;;;;4.63;4.22;;;;;;;31.15;40.49;100909.19;5107701;28;20047;-74
2022/07/24 07:03:20;;;;;;;5.80;4.20;;;;;;;31.25;40.22;100899.81;5106670;28;20054;-74
2022/07/24 07:05:48;;;;;;;4.90;3.95;;;;;;;31.37;39.83;100904.16;5107420;28;20048;-74
2022/07/24 07:08:16;;;;;;;4.65;3.90;;;;;;;31.43;39.54;100901.72;5102297;28;20067;-75
2022/07/24 07:10:46;;;;;;;4.45;4.05;;;;;;;31.33;40.20;100897.75;5123275;28;20102;-75
2022/07/24 07:13:14;;;;;;;4.60;4.20;;;;;;;31.32;40.03;100896.94;5106939;28;20051;-75
2022/07/24 07:15:42;;;;;;;6.70;4.20;;;;;;;31.41;39.57;100888.00;5098981;28;20402;-74
2022/07/24 07:18:10;;;;;;;4.35;3.95;;;;;;;31.59;39.19;100898.31;5096197;28;20040;-74
2022/07/24 07:20:38;;;;;;;4.82;4.25;;;;;;;31.63;39.27;100894.22;5098809;28;20494;-74
2022/07/24 07:23:06;;;;;;;4.68;4.15;;;;;;;31.52;39.54;100887.88;5106781;28;20036;-74
2022/07/24 07:25:35;;;;;;;4.47;3.97;;;;;;;31.32;39.67;100893.34;5103727;28;20066;-74
2022/07/24 07:28:03;;;;;;;7.07;4.22;;;;;;;31.19;39.78;100893.81;5090822;28;20052;-75
2022/07/24 07:30:31;;;;;;;4.68;4.28;;;;;;;31.19;39.78;100893.00;5087379;28;20051;-74
2022/07/24 07:32:59;;;;;;;8.10;4.82;;;;;;;31.26;40.59;100898.59;5093326;28;20040;-75
2022/07/24 07:35:27;;;;;;;8.63;4.93;;;;;;;31.25;41.38;100894.16;5091365;28;20047;-75
2022/07/24 07:37:55;;;;;;;5.45;3.78;;;;;;;31.41;40.34;100898.50;5089049;28;20058;-75
2022/07/24 07:40:25;;;;;;;5.15;4.53;;;;;;;31.32;39.07;100894.13;5093106;28;20428;-75
2022/07/24 07:42:53;;;;;;;6.15;4.28;;;;;;;31.20;40.41;100905.91;5091392;28;20434;-74
2022/07/24 07:45:21;;;;;;;7.63;4.97;;;;;;;31.19;40.26;100893.00;5093721;28;20047;-75
2022/07/24 07:47:49;;;;;;;5.10;4.65;;;;;;;31.23;39.58;100893.78;5092195;28;20044;-75
2022/07/24 07:50:17;;;;;;;5.15;4.07;;;;;;;31.26;39.37;100897.81;5093441;28;20040;-75
2022/07/24 07:52:45;;;;;;;5.10;4.30;;;;;;;31.37;40.12;100893.69;5092270;28;20486;-75
2022/07/24 07:55:13;;;;;;;4.97;4.13;;;;;;;31.78;39.01;100894.09;5091878;28;20376;-75
2022/07/24 07:57:51;;;;;;;4.57;4.18;;;;;;;31.99;38.42;100900.75;5089021;28;20056;-74
2022/07/24 08:00:34;;;;;;;5.72;4.93;;;;;;;32.06;37.34;100892.22;5090108;28;20056;-74
2022/07/24 08:03:02;;;;;;;4.53;4.13;;;;;;;32.11;37.62;100885.28;5092221;28;20044;-74
2022/07/24 08:05:44;;;;;;;4.68;4.22;;;;;;;32.11;36.82;100893.75;5092367;28;20044;-75
2022/07/24 08:08:27;;;;;;;4.50;4.03;;;;;;;32.14;38.00;100887.25;5083046;28;20051;-75
2022/07/24 08:10:55;;;;;;;6.57;4.18;;;;;;;32.20;37.19;100891.22;5092638;28;20044;-75
2022/07/24 08:13:23;;;;;;;6.75;3.95;;;;;;;32.21;37.17;100875.03;5090444;28;20395;-75
2022/07/24 08:15:51;;;;;;;4.22;3.83;;;;;;;32.45;36.58;100884.47;5091170;28;20048;-75
2022/07/24 08:18:19;;;;;;;5.85;4.22;;;;;;;32.64;36.53;100891.47;5087049;28;20036;-75
2022/07/24 08:20:47;;;;;;;4.60;4.20;;;;;;;32.70;35.79;100886.94;5092726;28;20047;-75
2022/07/24 08:23:15;;;;;;;4.88;4.47;;;;;;;32.70;35.11;100889.75;5093004;28;20505;-75
2022/07/24 08:25:43;;;;;;;5.97;4.47;;;;;;;32.64;35.17;100891.47;5093142;28;20490;-75
2022/07/24 08:28:11;;;;;;;4.53;4.13;;;;;;;32.71;35.41;100901.91;5092933;28;20040;-74
2022/07/24 08:30:40;;;;;;;5.50;4.10;;;;;;;32.69;35.56;100893.03;5084308;28;20040;-75
2022/07/24 08:33:08;;;;;;;5.13;4.63;;;;;;;32.79;36.00;100882.78;5089644;28;20036;-75
2022/07/24 08:35:36;;;;;;;5.22;4.72;;;;;;;32.79;35.47;100891.28;5092452;28;20379;-76
2022/07/24 08:38:07;;;;;;;4.88;4.43;;;;;;;32.88;35.28;100897.19;5089545;28;20047;-75
2022/07/24 08:40:39;;;;;;;4.93;4.53;;;;;;;32.96;35.44;100901.56;5092566;28;20040;-75
2022/07/24 08:43:09;;;;;;;5.03;4.45;;;;;;;32.93;35.70;100898.75;5092379;28;20047;-75
2022/07/24 08:45:40;;;;;;;7.45;4.47;;;;;;;33.06;34.98;100899.78;5092702;28;20040;-75
2022/07/24 08:48:10;;;;;;;5.40;4.78;;;;;;;33.32;34.45;100893.72;5092439;28;20036;-75
2022/07/24 08:50:42;;;;;;;5.20;4.80;;;;;;;33.30;34.21;100899.81;5091527;28;20051;-75
2022/07/24 08:53:10;;;;;;;6.83;4.60;;;;;;;33.19;34.65;100899.97;5088133;28;20059;-76
2022/07/24 08:55:42;;;;;;;8.48;5.30;;;;;;;33.27;34.76;100902.69;5092354;28;20052;-75
2022/07/24 08:58:10;;;;;;;5.80;5.30;;;;;;;33.50;34.10;100911.22;5091900;28;20040;-75
2022/07/24 09:00:38;;;;;;;5.22;4.72;;;;;;;33.69;33.97;100905.22;5092845;28;20071;-75
2022/07/24 09:03:07;;;;;;;5.38;4.88;;;;;;;33.71;34.25;100900.72;5086177;28;20048;-75
2022/07/24 09:05:58;;;;;;;5.15;4.65;;;;;;;33.69;33.94;100894.69;5090323;28;20044;-75
2022/07/24 09:08:25;;;;;;;7.68;4.78;;;;;;;33.78;32.86;100902.63;5089546;28;20048;-76
2022/07/24 09:11:05;;;;;;;4.72;4.32;;;;;;;33.85;32.84;100901.66;5090681;28;20044;-75
2022/07/24 09:16:22;;;;;;;5.82;4.72;;;;;;;33.66;32.38;100904.06;5086465;28;20051;-74
2022/07/24 09:19:02;;;;;;;5.20;4.70;;;;;;;33.80;32.28;100902.19;5089043;28;20036;-75
2022/07/24 09:21:38;;;;;;;6.63;5.05;;;;;;;33.67;32.72;100913.38;5085694;28;20048;-75
2022/07/24 09:24:20;;;;;;;5.35;4.45;;;;;;;33.60;33.22;100911.47;5084199;28;20494;-75
2022/07/24 09:26:55;;;;;;;6.38;4.88;;;;;;;33.55;32.82;100907.09;5091709;28;20036;-75
2022/07/24 09:29:28;;;;;;;5.97;4.93;;;;;;;33.66;32.81;100906.88;5091777;28;20044;-71
2022/07/24 09:31:59;;;;;;;6.43;4.68;;;;;;;33.90;32.60;100892.66;5084673;28;20394;-72
2022/07/24 09:34:36;;;;;;;7.38;4.75;;;;;;;34.41;31.77;100903.78;5098883;27;20514;-72
2022/07/24 09:37:07;;;;;;;5.10;4.60;;;;;;;34.87;31.08;100894.69;5089419;28;20434;-72
2022/07/24 09:39:37;;;;;;;4.55;4.15;;;;;;;35.16;30.48;100882.63;5086886;28;20055;-72
2022/07/24 09:42:06;;;;;;;5.32;4.60;;;;;;;35.45;30.48;100895.31;5091406;28;20036;-72
2022/07/24 09:44:35;;;;;;;6.10;4.80;;;;;;;35.16;29.98;100896.03;5091652;28;20078;-72
2022/07/24 09:47:10;;;;;;;5.75;5.00;;;;;;;35.28;30.57;100892.47;5091438;28;20044;-72
2022/07/24 09:49:39;;;;;;;5.93;5.22;;;;;;;35.20;31.20;100886.19;5091574;28;20043;-72
2022/07/24 09:52:10;;;;;;;5.28;4.78;;;;;;;35.68;30.21;100897.19;5091292;28;20052;-72
2022/07/24 09:54:41;;;;;;;4.97;4.47;;;;;;;35.46;30.01;100891.22;5089190;28;20050;-72
2022/07/24 09:57:17;;;;;;;5.93;4.45;;;;;;;35.21;30.73;100884.94;5083368;28;20052;-72
2022/07/24 09:59:49;;;;;;;5.20;4.38;;;;;;;35.09;28.60;100889.28;5084084;28;20483;-72
2022/07/24 10:02:26;;;;;;;4.43;4.03;;;;;;;35.49;29.25;100885.41;5084270;28;20044;-72
2022/07/24 10:04:59;;;;;;;4.82;3.92;;;;;;;35.48;28.77;100883.03;5091035;28;20044;-71
2022/07/24 10:07:28;;;;;;;4.30;3.90;;;;;;;35.42;27.84;100882.00;5083220;28;20052;-72
2022/07/24 10:10:00;;;;;;;3.80;3.50;;;;;;;35.84;27.88;100887.78;5089838;28;20523;-72
2022/07/24 10:12:31;;;;;;;4.82;3.58;;;;;;;36.30;28.39;100875.47;5088082;28;20055;-73
2022/07/24 10:15:01;;;;;;;7.07;3.88;;;;;;;36.55;28.38;100873.94;5089445;28;20491;-72
2022/07/24 10:18:13;;;;;;;3.80;3.15;;;;;;;36.34;26.27;100872.56;5088920;28;20044;-72
2022/07/24 10:20:44;;;;;;;3.47;3.17;;;;;;;35.88;26.61;100885.63;5088368;28;20036;-71
2022/07/24 10:23:21;;;;;;;4.07;3.60;;;;;;;35.99;26.70;100870.28;5077068;28;20052;-73
2022/07/24 10:25:54;;;;;;;3.45;3.15;;;;;;;35.49;27.32;100867.56;5075620;28;20040;-71
2022/07/24 10:28:37;;;;;;;4.82;3.60;;;;;;;35.54;27.09;100869.06;5073536;28;20115;-72
2022/07/24 10:31:08;;;;;;;3.15;2.90;;;;;;;35.74;27.74;100863.25;5074516;28;20044;-71
2022/07/24 10:33:39;;;;;;;3.72;3.33;;;;;;;36.01;26.60;100862.09;5079008;28;20052;-72
2022/07/24 10:36:18;;;;;;;3.40;3.00;;;;;;;36.01;27.83;100847.84;5090721;28;20044;-72
2022/07/24 10:39:08;;;;;;;3.42;3.08;;;;;;;35.71;27.03;100858.47;5085237;28;20043;-73
2022/07/24 10:41:36;;;;;;;4.25;3.10;;;;;;;36.12;27.25;100854.03;5089063;28;20040;-72
2022/07/24 10:44:18;;;;;;;5.50;3.35;;;;;;;35.95;25.94;100849.66;5089059;28;20036;-72
2022/07/24 10:46:59;;;;;;;3.70;3.40;;;;;;;35.89;26.55;100844.53;5087978;28;20076;-71
2022/07/24 10:49:50;;;;;;;3.67;3.38;;;;;;;35.80;26.79;100840.75;5090395;28;20391;-73
2022/07/24 10:52:33;;;;;;;7.88;3.53;;;;;;;35.84;26.22;100842.22;5086942;28;20533;-72
2022/07/24 10:55:26;;;;;;;5.53;3.50;;;;;;;36.15;25.89;100843.78;5084497;28;20036;-72
2022/07/24 10:58:08;;;;;;;3.70;3.40;;;;;;;36.21;26.41;100832.66;5084447;28;20052;-71
2022/07/24 11:00:41;;;;;;;4.13;3.70;;;;;;;36.62;26.21;100833.03;5088849;28;20102;-71
2022/07/24 11:03:22;;;;;;;;;;;;;;;37.17;25.98;100834.88;5094867;28;20471;-72
2022/07/24 11:06:07;;;;;;;3.80;3.50;;;;;;;37.11;24.33;100834.69;5093771;28;20611;-72
2022/07/24 11:08:49;;;;;;;4.68;3.60;;;;;;;37.30;23.79;100832.81;5085114;28;20036;-72
2022/07/24 11:11:19;;;;;;;3.55;3.25;;;;;;;37.13;24.33;100825.66;5093268;28;20732;-72
2022/07/24 11:13:52;;;;;;;4.53;3.60;;;;;;;37.29;25.54;100821.84;5091009;28;20491;-72
2022/07/24 11:16:23;;;;;;;4.93;3.90;;;;;;;37.29;24.15;100822.66;5089629;28;20048;-73
2022/07/24 11:18:52;;;;;;;4.15;3.85;;;;;;;37.22;25.20;100818.00;5087593;28;20059;-73
2022/07/24 11:21:35;;;;;;;3.45;3.15;;;;;;;37.57;24.27;100819.22;5091691;28;20048;-72
2022/07/24 11:24:22;;;;;;;4.20;3.88;;;;;;;37.77;23.82;100814.00;5092046;28;20043;-73
2022/07/24 11:26:58;;;;;;;4.65;3.72;;;;;;;37.38;23.27;100807.66;5089732;28;20055;-73
2022/07/24 11:29:32;;;;;;;4.07;3.72;;;;;;;37.70;23.45;100811.41;5090417;28;20509;-74
2022/07/24 11:32:05;;;;;;;4.25;3.88;;;;;;;37.52;24.28;100806.31;5104587;28;20043;-74
2022/07/24 11:34:45;;;;;;;4.80;3.95;;;;;;;37.75;23.75;100810.81;5092857;28;20762;-74
2022/07/24 11:37:13;;;;;;;4.20;3.83;;;;;;;37.86;22.55;100804.69;5092496;28;20044;-76
2022/07/24 11:39:53;;;;;;;5.68;4.10;;;;;;;38.09;20.99;100807.53;5092314;28;20367;-74
2022/07/24 11:42:26;;;;;;;4.47;3.60;;;;;;;38.24;21.53;100793.47;5088874;28;20036;-72
2022/07/24 11:44:55;;;;;;;4.05;3.75;;;;;;;38.35;22.36;100796.69;5091493;28;20478;-74
2022/07/24 11:47:26;;;;;;;4.10;3.70;;;;;;;38.31;22.60;100791.13;5089443;28;20044;-74
2022/07/24 11:49:57;;;;;;;5.55;3.67;;;;;;;38.64;21.80;100792.69;5092269;28;20492;-75
2022/07/24 11:52:30;;;;;;;4.35;3.92;;;;;;;38.87;22.32;100772.53;5091213;28;20071;-77
2022/07/24 11:55:13;;;;;;;3.63;3.33;;;;;;;38.61;21.64;100782.22;5083523;28;20040;-76
2022/07/24 12:02:04;;;;;;;3.60;3.30;;;;;;;38.71;21.63;100780.16;5090042;23;20079;-73
2022/07/24 12:04:42;;;;;;;4.15;3.75;;;;;;;38.60;21.63;100777.72;4936517;28;20057;-74
2022/07/24 12:07:13;;;;;;;4.30;3.90;;;;;;;38.36;21.70;100771.78;4951470;28;20047;-74
2022/07/24 12:09:49;;;;;;;4.18;3.85;;;;;;;38.45;21.74;100771.78;4935474;29;20429;-74
2022/07/24 12:12:29;;;;;;;3.85;3.53;;;;;;;38.70;21.67;100764.28;4946192;28;20047;-74
2022/07/24 12:15:08;;;;;;;3.90;3.60;;;;;;;38.81;21.43;100770.34;4953252;28;20047;-74
2022/07/24 12:18:09;;;;;;;5.57;4.22;;;;;;;39.13;21.69;100755.13;4956962;28;20052;-74
2022/07/24 12:20:59;;;;;;;4.25;3.88;;;;;;;39.75;21.01;100758.84;4938461;29;20055;-74
2022/07/24 12:23:30;;;;;;;5.85;3.65;;;;;;;39.31;23.48;100760.00;4941975;29;20047;-79
2022/07/24 12:26:00;;;;;;;4.03;3.63;;;;;;;38.97;21.86;100743.47;4914140;28;20047;-74
2022/07/24 12:28:32;;;;;;;6.13;3.67;;;;;;;39.01;22.23;100749.06;4944343;28;20512;-74
2022/07/24 12:31:07;;;;;;;4.38;3.97;;;;;;;39.04;21.49;100753.81;4947173;28;20052;-75
2022/07/24 12:33:36;;;;;;;4.20;3.80;;;;;;;39.05;22.07;100761.16;4929120;29;20055;-74
2022/07/24 12:36:11;;;;;;;6.22;3.90;;;;;;;38.62;22.74;100754.41;4948915;28;20046;-74
2022/07/24 12:38:49;;;;;;;4.13;3.72;;;;;;;39.02;21.88;100761.28;4920797;29;20059;-74
2022/07/24 12:41:20;;;;;;;3.70;3.40;;;;;;;39.02;22.27;100759.25;4933538;29;20055;-73
2022/07/24 12:44:00;;;;;;;4.18;3.78;;;;;;;38.92;21.80;100751.88;4925421;28;20058;-74
2022/07/24 12:46:38;;;;;;;6.03;3.90;;;;;;;39.00;22.08;100736.06;4941284;28;20051;-74
2022/07/24 12:49:15;;;;;;;4.80;3.90;;;;;;;39.07;22.41;100750.03;4920101;28;20059;-74
2022/07/24 12:51:52;;;;;;;4.32;3.78;;;;;;;39.22;23.25;100746.50;4923569;29;20052;-74
2022/07/24 12:54:25;;;;;;;4.28;3.88;;;;;;;39.30;22.72;100752.72;4919698;28;20055;-74
2022/07/24 12:57:01;;;;;;;6.25;4.18;;;;;;;39.29;21.91;100737.63;4943732;28;20046;-73
2022/07/24 12:59:37;;;;;;;4.65;3.90;;;;;;;39.48;22.54;100740.47;4937155;29;20059;-73
2022/07/24 13:02:07;;;;;;;5.97;4.13;;;;;;;39.57;22.41;100745.38;4961380;28;20051;-73
2022/07/24 13:04:43;;;;;;;4.55;4.13;;;;;;;39.70;22.66;100733.72;4942080;28;20610;-74
2022/07/24 16:25:37;;;;;;;5.68;4.18;;;;;;;35.64;27.31;100552.91;5107870;27;20408;-73
2022/07/24 16:28:05;;;;;;;7.03;4.88;;;;;;;35.82;26.70;100556.44;5087077;28;20040;-73
2022/07/24 16:30:33;;;;;;;4.43;4.05;;;;;;;35.77;26.85;100552.91;5081120;28;20074;-74
2022/07/24 16:33:01;;;;;;;4.88;4.38;;;;;;;35.74;27.55;100561.56;5085858;28;20070;-74
2022/07/24 16:35:51;;;;;;;6.43;4.60;;;;;;;35.81;26.78;100560.56;5040861;28;20584;-74
2022/07/24 16:38:23;;;;;;;4.35;3.95;;;;;;;35.75;27.00;100552.59;5068881;28;20393;-74
2022/07/24 16:40:52;;;;;;;5.13;4.47;;;;;;;35.71;27.23;100559.66;5095551;28;20043;-74
2022/07/24 18:32:53;;;;;;;6.50;5.32;;;;;;;34.09;30.85;100586.50;5103954;27;20421;-79
2022/07/24 18:35:21;;;;;;;7.13;5.60;;;;;;;34.19;30.71;100593.97;5088374;28;20368;-78
2022/07/24 18:37:50;;;;;;;6.40;4.60;;;;;;;34.24;30.83;100576.41;5087173;28;20055;-79
2022/07/24 18:40:18;;;;;;;5.50;4.45;;;;;;;34.27;30.86;100583.22;5085020;28;20056;-79
2022/07/24 18:42:48;;;;;;;8.55;4.05;;;;;;;34.27;30.73;100586.88;5088117;28;20056;-80
2022/07/24 18:45:16;;;;;;;4.90;4.50;;;;;;;34.21;31.38;100582.97;5086644;28;20040;-79
2022/07/24 18:47:44;;;;;;;5.25;4.70;;;;;;;34.17;31.21;100576.59;5086864;28;20032;-80
2022/07/24 18:50:14;;;;;;;7.25;4.88;;;;;;;34.17;31.26;100583.06;5092178;28;20047;-80
2022/07/24 18:52:50;;;;;;;5.57;4.55;;;;;;;34.15;31.12;100593.25;5085978;28;20052;-80
2022/07/24 18:55:18;;;;;;;6.28;4.70;;;;;;;34.12;31.25;100585.63;5087327;28;20040;-79
2022/07/24 18:57:49;;;;;;;4.97;4.57;;;;;;;34.12;31.67;100594.16;5087090;28;20425;-80
2022/07/24 19:00:17;;;;;;;21.33;15.38;;;;;;;34.14;31.38;100600.19;5084932;28;20036;-80
2022/07/24 19:02:45;;;;;;;7.93;7.05;;;;;;;34.06;31.52;100610.91;5085581;28;20052;-81
2022/07/24 19:05:14;;;;;;;11.20;7.75;;;;;;;34.08;31.60;100602.78;5081890;28;20052;-80
2022/07/24 19:07:42;;;;;;;12.18;5.80;;;;;;;34.06;32.07;100608.06;5086008;28;20040;-79
2022/07/24 19:10:10;;;;;;;7.45;5.60;;;;;;;34.02;32.20;100602.47;5084532;28;20040;-79
2022/07/24 19:12:38;;;;;;;18.73;15.88;;;;;;;34.02;31.67;100618.72;5084486;28;20056;-80
2022/07/24 19:15:07;;;;;;;7.05;6.35;;;;;;;33.92;31.79;100612.06;5087070;28;20035;-80
2022/07/24 19:17:35;;;;;;;7.78;6.13;;;;;;;33.95;31.61;100616.84;5083931;28;20040;-80
2022/07/24 19:20:05;;;;;;;15.27;10.63;;;;;;;33.82;32.00;100627.28;5085698;28;20632;-80
2022/07/24 19:22:34;;;;;;;10.73;9.63;;;;;;;33.63;32.70;100618.41;5101337;28;20051;-80
2022/07/24 19:25:03;;;;;;;6.60;5.97;;;;;;;33.59;32.84;100627.00;5084503;28;20069;-80
2022/07/24 19:27:31;;;;;;;11.02;8.05;;;;;;;33.51;33.04;100625.53;5084666;28;20486;-80
2022/07/24 19:29:59;;;;;;;10.38;8.27;;;;;;;33.33;32.99;100628.75;5085955;28;20044;-80
2022/07/24 19:32:27;;;;;;;12.95;11.65;;;;;;;33.38;33.18;100626.19;5085846;28;20051;-80
2022/07/24 19:34:55;;;;;;;8.85;7.90;;;;;;;33.40;33.00;100633.47;5086684;28;20057;-80
2022/07/24 19:37:23;;;;;;;7.40;6.70;;;;;;;33.40;32.70;100642.78;5083426;28;20048;-80
2022/07/24 19:39:51;;;;;;;8.10;6.80;;;;;;;33.44;32.58;100646.34;5040656;28;20064;-80
2022/07/24 19:42:20;;;;;;;9.48;8.18;;;;;;;33.13;32.06;100652.22;5066181;28;20052;-80
2022/07/24 19:44:49;;;;;;;10.90;6.68;;;;;;;33.16;32.40;100651.38;5036471;28;20488;-80
2022/07/24 19:47:19;;;;;;;10.18;5.85;;;;;;;33.02;32.61;100651.66;5065938;28;20045;-80
2022/07/24 19:49:48;;;;;;;8.02;5.07;;;;;;;33.08;32.31;100659.22;5059544;28;20044;-80
2022/07/24 19:52:18;;;;;;;5.05;4.22;;;;;;;32.98;32.49;100651.72;5053937;28;20045;-80
2022/07/24 19:54:47;;;;;;;9.02;5.32;;;;;;;32.90;32.49;100665.22;5041209;28;20055;-80
2022/07/24 19:57:16;;;;;;;9.30;4.13;;;;;;;32.79;32.64;100670.28;5069786;28;20043;-79
2022/07/24 19:59:46;;;;;;;5.32;4.55;;;;;;;32.89;32.78;100671.31;5069808;28;20041;-79
2022/07/24 20:02:14;;;;;;;6.80;4.25;;;;;;;32.82;32.76;100675.06;5071771;28;20060;-79
2022/07/24 20:04:42;;;;;;;4.68;4.03;;;;;;;32.76;32.59;100671.13;5071289;28;20054;-79
2022/07/24 20:07:10;;;;;;;5.78;4.38;;;;;;;32.75;32.73;100669.53;5053083;28;20471;-79
2022/07/24 20:09:39;;;;;;;10.63;4.80;;;;;;;32.80;32.51;100672.66;5053545;28;20047;-78
2022/07/24 20:12:07;;;;;;;6.50;5.78;;;;;;;32.69;32.85;100675.69;5067263;28;20055;-80
2022/07/24 20:14:37;;;;;;;5.35;4.50;;;;;;;32.56;32.86;100675.50;5053737;28;20412;-78
2022/07/24 20:17:06;;;;;;;4.70;4.28;;;;;;;32.68;33.38;100670.47;5072173;28;20059;-79
2022/07/24 20:19:34;;;;;;;8.00;4.10;;;;;;;32.64;33.29;100664.06;5068954;28;20474;-86
2022/07/24 20:22:02;;;;;;;4.72;3.97;;;;;;;32.51;32.95;100673.19;5070084;28;20041;-85
2022/07/24 20:24:30;;;;;;;5.53;4.10;;;;;;;32.45;33.09;100677.75;5071194;28;20055;-83
2022/07/24 20:26:58;;;;;;;7.78;4.03;;;;;;;32.50;33.14;100676.44;5070917;28;20040;-84
2022/07/24 20:29:26;;;;;;;8.60;5.35;;;;;;;32.37;32.89;100668.53;5072193;28;20047;-85
2022/07/24 20:31:54;;;;;;;7.38;5.13;;;;;;;32.44;33.47;100670.47;5066927;28;20427;-85
2022/07/24 20:34:22;;;;;;;8.73;4.90;;;;;;;32.35;33.04;100676.66;5071524;28;20487;-85
2022/07/24 20:36:50;;;;;;;9.02;4.50;;;;;;;32.34;33.41;100697.69;5060366;28;20060;-85
2022/07/24 20:39:18;;;;;;;5.63;5.10;;;;;;;32.30;33.47;100680.78;5069949;28;20625;-83
2022/07/24 20:41:46;;;;;;;6.75;5.97;;;;;;;32.27;33.30;100678.00;5067140;28;20399;-72
2022/07/24 20:44:15;;;;;;;5.88;4.38;;;;;;;32.09;33.49;100693.25;5065864;28;20597;-74
2022/07/24 20:46:44;;;;;;;13.00;7.05;;;;;;;31.94;33.96;100686.19;5067627;28;20071;-75
2022/07/24 20:49:12;;;;;;;7.40;6.70;;;;;;;31.78;34.54;100691.22;5067689;28;20032;-74
2022/07/24 20:51:41;;;;;;;6.90;6.20;;;;;;;31.70;34.62;100689.72;5069477;28;20059;-74
2022/07/24 20:54:09;;;;;;;20.95;13.93;;;;;;;31.58;35.15;100691.09;5067040;28;20047;-73
2022/07/24 20:56:37;;;;;;;44.50;34.22;;;;;;;31.53;34.96;100691.56;5071624;28;20036;-74
2022/07/24 20:59:06;;;;;;;8.05;7.25;;;;;;;31.44;35.30;100699.75;5068130;28;20044;-74
2022/07/24 21:01:34;;;;;;;10.85;9.85;;;;;;;31.42;35.27;100703.00;5069250;28;20494;-74
2022/07/24 21:04:03;;;;;;;12.07;7.95;;;;;;;31.36;35.98;100704.69;5069276;28;20032;-75
2022/07/24 21:06:32;;;;;;;14.57;13.07;;;;;;;31.30;35.53;100704.34;5070032;28;20123;-74
2022/07/24 21:09:00;;;;;;;13.13;10.85;;;;;;;31.21;36.21;100701.19;5069501;28;20063;-75
2022/07/24 21:11:28;;;;;;;9.50;6.28;;;;;;;31.27;35.84;100708.00;5069180;28;20363;-75
2022/07/24 21:13:56;;;;;;;9.88;8.88;;;;;;;31.24;35.72;100703.19;5070401;28;20052;-74
2022/07/24 21:16:25;;;;;;;6.70;6.10;;;;;;;31.19;36.70;100706.47;5070467;28;20482;-74
2022/07/24 21:18:59;;;;;;;8.15;6.28;;;;;;;31.18;36.12;100714.13;5071437;28;20055;-75
2022/07/24 21:21:32;;;;;;;27.08;19.83;;;;;;;31.23;36.27;100716.50;5071126;28;20051;-73
2022/07/24 21:24:01;;;;;;;9.52;5.55;;;;;;;31.18;36.54;100722.59;5070054;28;20418;-74
2022/07/24 21:26:30;;;;;;;11.68;5.28;;;;;;;31.15;36.36;100717.00;5070461;28;20036;-75
2022/07/24 21:29:01;;;;;;;8.43;5.00;;;;;;;31.16;36.42;100722.25;5072076;28;20052;-75
2022/07/24 21:31:29;;;;;;;7.68;4.90;;;;;;;31.04;36.74;100734.84;5068985;28;20380;-74
2022/07/24 21:34:00;;;;;;;6.57;4.95;;;;;;;30.89;37.55;100722.91;5070276;28;20360;-73
2022/07/24 21:36:30;;;;;;;5.45;4.50;;;;;;;30.89;37.08;100739.06;5068149;28;20055;-75
2022/07/24 21:39:06;;;;;;;6.07;4.68;;;;;;;30.82;38.13;100732.25;5070062;28;20040;-71
2022/07/24 21:41:39;;;;;;;6.60;4.78;;;;;;;30.73;37.10;100731.94;5067405;28;20051;-72
2022/07/24 21:44:08;;;;;;;5.97;4.50;;;;;;;30.72;38.22;100733.16;5066400;28;20051;-72
2022/07/24 21:46:36;;;;;;;5.40;4.68;;;;;;;30.71;37.36;100728.72;5068492;28;20498;-70
2022/07/24 21:49:04;;;;;;;5.30;4.40;;;;;;;30.65;38.22;100736.00;5069518;28;20048;-73
2022/07/24 21:51:34;;;;;;;5.43;4.93;;;;;;;30.63;37.45;100727.94;5050612;28;20383;-74
2022/07/24 21:54:04;;;;;;;6.15;5.00;;;;;;;30.52;37.31;100733.69;5068578;28;20052;-73
2022/07/24 21:56:33;;;;;;;6.90;4.78;;;;;;;30.45;37.73;100736.56;5070126;28;20036;-73
2022/07/24 21:59:04;;;;;;;7.03;4.70;;;;;;;30.43;37.78;100728.50;5069765;28;20044;-75
2022/07/24 22:01:32;;;;;;;6.97;4.78;;;;;;;30.44;37.58;100723.66;5070014;28;20036;-75
2022/07/24 22:04:00;;;;;;;5.38;4.80;;;;;;;30.43;37.57;100727.69;5066562;28;20056;-75
2022/07/24 22:06:29;;;;;;;5.82;4.40;;;;;;;30.39;38.03;100729.75;5071831;28;20482;-75
2022/07/24 22:08:57;;;;;;;5.47;4.70;;;;;;;30.26;37.93;100729.44;5072039;28;20041;-75
2022/07/24 22:11:24;;;;;;;6.68;4.65;;;;;;;30.26;39.05;100738.69;5071542;28;20044;-75
2022/07/24 22:13:52;;;;;;;6.70;4.70;;;;;;;30.19;38.39;100733.09;5069874;28;20045;-75
2022/07/24 22:16:20;;;;;;;5.28;4.78;;;;;;;30.17;38.65;100732.72;5069529;28;20037;-75
2022/07/24 22:18:48;;;;;;;5.60;4.47;;;;;;;30.21;37.79;100733.50;5070113;28;20048;-75
2022/07/24 22:21:16;;;;;;;5.93;4.68;;;;;;;30.26;37.53;100737.91;5071767;28;20506;-75
2022/07/24 22:23:44;;;;;;;5.57;4.53;;;;;;;30.31;37.44;100729.78;5069436;28;20056;-77
2022/07/24 22:26:12;;;;;;;8.75;4.63;;;;;;;30.22;37.66;100735.13;5071784;28;20044;-74
2022/07/24 22:28:40;;;;;;;5.72;4.60;;;;;;;30.17;38.16;100732.72;5071834;28;20066;-73
2022/07/24 22:31:09;;;;;;;6.43;4.78;;;;;;;30.17;37.79;100735.53;5071593;28;20055;-74
2022/07/24 22:33:37;;;;;;;6.20;4.63;;;;;;;30.17;37.81;100729.91;5071612;28;20037;-74
2022/07/24 22:36:06;;;;;;;4.90;4.40;;;;;;;30.23;37.47;100727.44;5067420;28;20036;-74
2022/07/24 22:38:38;;;;;;;6.40;4.10;;;;;;;30.22;37.93;100737.13;5071559;28;20048;-74
2022/07/24 22:41:06;;;;;;;5.55;4.50;;;;;;;30.34;37.00;100733.03;5071553;28;20043;-74
2022/07/24 22:43:35;;;;;;;7.30;4.90;;;;;;;30.23;37.58;100725.44;5087003;28;20467;-74
2022/07/24 22:46:05;;;;;;;6.05;4.15;;;;;;;30.21;37.13;100722.22;5071916;28;20491;-74
2022/07/24 22:48:34;;;;;;;5.45;4.03;;;;;;;30.23;37.63;100727.44;5070409;28;20037;-74
2022/07/24 22:51:03;;;;;;;5.78;4.40;;;;;;;30.20;37.44;100733.91;5071901;28;20052;-73
2022/07/24 22:53:31;;;;;;;5.00;4.40;;;;;;;30.21;37.22;100730.69;5064656;28;20045;-74
2022/07/24 22:55:59;;;;;;;6.85;4.40;;;;;;;30.21;37.37;100730.69;5071683;28;20048;-74
2022/07/24 22:58:27;;;;;;;4.95;4.55;;;;;;;30.19;37.96;100729.50;5071667;28;20044;-74
2022/07/24 23:00:55;;;;;;;4.82;4.03;;;;;;;30.19;37.31;100730.28;5071458;28;20045;-74
2022/07/24 23:03:23;;;;;;;7.78;4.60;;;;;;;30.20;37.42;100740.34;5071507;28;20047;-74